Terminal Aerodrome Forecast
Issued by NWS Charleston, SC

Home | Current Version | Previous Version | Text Only | Print | Product List | Glossary On
Versions: 1 2 3 4 5 6 7 8 9 10 11 12 13 14 15 16 17
433
FTUS42 KCHS 052322
TAFSAV
TAF
KSAV 052322Z 0600/0624 31009G19KT P6SM VCSH SCT070
     FM060200 30007KT P6SM FEW050
     FM061600 30010KT P6SM SCT050=

USA.gov is the U.S. government's official web portal to all federal, state and local government web resources and services.